createdAt,value
2017-10-23T00:00:39.539Z,0.00
2017-10-23T00:01:39.526Z,0.00
2017-10-23T00:02:39.511Z,0.00
2017-10-23T00:03:39.499Z,0.00
2017-10-23T00:04:39.484Z,0.00
2017-10-23T00:05:39.471Z,0.00
2017-10-23T00:06:39.455Z,0.00
2017-10-23T00:07:39.442Z,0.00
2017-10-23T00:08:39.428Z,0.00
2017-10-23T00:09:39.415Z,0.00
2017-10-23T00:10:39.409Z,0.00
2017-10-23T00:11:39.387Z,0.00
2017-10-23T00:12:39.376Z,0.00
2017-10-23T00:13:39.362Z,0.00
2017-10-23T00:14:39.347Z,0.00
2017-10-23T00:15:39.333Z,0.00
2017-10-23T00:16:39.320Z,0.00
2017-10-23T00:17:39.311Z,0.00
2017-10-23T00:18:39.295Z,0.00
2017-10-23T00:19:39.282Z,0.00
2017-10-23T00:20:39.264Z,0.00
2017-10-23T00:21:39.250Z,0.00
2017-10-23T00:22:39.238Z,0.00
2017-10-23T00:23:39.222Z,0.00
2017-10-23T00:24:39.211Z,0.00
2017-10-23T00:25:39.200Z,0.00
2017-10-23T00:26:39.181Z,0.00
2017-10-23T00:27:39.168Z,0.00
2017-10-23T00:28:39.154Z,0.00
2017-10-23T00:29:39.140Z,0.00
2017-10-23T00:30:39.126Z,0.00
2017-10-23T00:31:39.113Z,0.00
2017-10-23T00:32:39.102Z,0.00
2017-10-23T00:33:39.085Z,0.00
2017-10-23T00:34:39.071Z,0.00
2017-10-23T00:35:39.058Z,0.00
2017-10-23T00:36:39.044Z,0.00
2017-10-23T00:37:39.031Z,0.00
2017-10-23T00:38:39.017Z,0.00
2017-10-23T00:39:39.003Z,0.00
2017-10-23T00:40:38.990Z,0.00
2017-10-23T00:41:38.976Z,0.00
2017-10-23T00:42:38.961Z,0.00
2017-10-23T00:43:38.948Z,0.00
2017-10-23T00:44:38.935Z,0.00
2017-10-23T00:45:38.920Z,0.00
2017-10-23T00:46:38.906Z,0.00
2017-10-23T00:47:38.893Z,0.00
2017-10-23T00:48:38.879Z,0.00
2017-10-23T00:49:38.866Z,0.00
2017-10-23T00:50:38.850Z,0.00
2017-10-23T00:51:38.837Z,0.00
2017-10-23T00:52:38.827Z,0.00
2017-10-23T00:53:38.811Z,0.00
2017-10-23T00:54:38.796Z,0.00
2017-10-23T00:55:38.781Z,0.00
2017-10-23T00:56:38.769Z,0.00
2017-10-23T00:57:38.756Z,0.00
2017-10-23T00:58:38.741Z,0.00
2017-10-23T00:59:38.731Z,0.00
2017-10-23T01:00:38.715Z,0.00
2017-10-23T01:01:38.701Z,0.00
2017-10-23T01:02:38.686Z,0.00
2017-10-23T01:03:38.672Z,0.00
2017-10-23T01:04:38.658Z,0.00
2017-10-23T01:05:38.645Z,0.00
2017-10-23T01:06:38.631Z,0.00
2017-10-23T01:07:38.619Z,0.00
2017-10-23T01:08:38.605Z,0.00
2017-10-23T01:09:38.591Z,0.00
2017-10-23T01:10:38.576Z,0.00
2017-10-23T01:11:38.562Z,0.00
2017-10-23T01:12:38.549Z,0.00
2017-10-23T01:13:38.536Z,0.00
2017-10-23T01:14:38.521Z,0.00
2017-10-23T01:15:38.507Z,0.00
2017-10-23T01:16:38.494Z,0.00
2017-10-23T01:17:38.480Z,0.00
2017-10-23T01:18:38.465Z,0.00
2017-10-23T01:19:38.452Z,0.00
2017-10-23T01:20:38.437Z,0.00
2017-10-23T01:21:38.425Z,0.00
2017-10-23T01:22:38.410Z,0.00
2017-10-23T01:23:38.396Z,0.00
2017-10-23T01:24:38.383Z,0.00
2017-10-23T01:25:38.370Z,0.00
2017-10-23T01:26:38.355Z,0.00
2017-10-23T01:27:38.341Z,0.00
2017-10-23T01:28:38.328Z,0.00
2017-10-23T01:29:38.314Z,0.00
2017-10-23T01:30:38.300Z,0.00
2017-10-23T01:31:38.285Z,0.00
2017-10-23T01:32:38.273Z,0.00
2017-10-23T01:33:38.259Z,0.00
2017-10-23T01:34:38.244Z,0.00
2017-10-23T01:35:38.250Z,0.00
2017-10-23T01:36:38.222Z,0.00
2017-10-23T01:37:38.203Z,0.00
2017-10-23T01:38:38.188Z,0.00
2017-10-23T01:39:38.174Z,0.00
2017-10-23T01:40:38.160Z,0.00
2017-10-23T01:41:38.149Z,0.00
2017-10-23T01:42:38.133Z,0.00
2017-10-23T01:43:38.119Z,0.00
2017-10-23T01:44:38.106Z,0.00
2017-10-23T01:45:38.092Z,0.00
2017-10-23T01:46:38.078Z,0.00
2017-10-23T01:47:38.064Z,0.00
2017-10-23T01:48:38.050Z,0.00
2017-10-23T01:49:38.036Z,0.00
2017-10-23T01:50:38.022Z,0.00
2017-10-23T01:51:38.009Z,0.00
2017-10-23T01:52:37.995Z,0.00
2017-10-23T01:53:37.989Z,0.00
2017-10-23T01:54:37.966Z,0.00
2017-10-23T01:55:37.953Z,0.00
2017-10-23T01:56:37.939Z,0.00
2017-10-23T01:57:37.926Z,0.00
2017-10-23T01:58:37.911Z,0.00
2017-10-23T01:59:37.897Z,0.00
2017-10-23T02:00:37.887Z,0.00
2017-10-23T02:01:37.873Z,0.00
2017-10-23T02:02:37.855Z,0.00
2017-10-23T02:03:37.846Z,0.00
2017-10-23T02:04:37.830Z,0.00
2017-10-23T02:05:37.815Z,0.00
2017-10-23T02:06:37.799Z,0.00
2017-10-23T02:07:37.786Z,0.00
2017-10-23T02:08:37.770Z,0.00
2017-10-23T02:09:37.758Z,0.00
2017-10-23T02:10:37.744Z,0.00
2017-10-23T02:11:37.730Z,0.00
2017-10-23T02:12:37.714Z,0.00
2017-10-23T02:13:37.702Z,0.00
2017-10-23T02:14:37.687Z,0.00
2017-10-23T02:15:37.674Z,0.00
2017-10-23T02:16:37.660Z,0.00
2017-10-23T02:17:37.646Z,0.00
2017-10-23T02:18:37.632Z,0.00
2017-10-23T02:19:37.616Z,0.00
2017-10-23T02:20:37.606Z,0.00
2017-10-23T02:21:37.590Z,0.00
2017-10-23T02:22:37.575Z,0.00
2017-10-23T02:23:37.562Z,0.00
2017-10-23T02:24:37.548Z,0.00
2017-10-23T02:25:37.533Z,0.00
2017-10-23T02:26:37.519Z,0.00
2017-10-23T02:27:37.505Z,0.00
2017-10-23T02:28:37.491Z,0.00
2017-10-23T02:29:37.508Z,0.00
2017-10-23T02:30:37.463Z,0.00
2017-10-23T02:31:37.454Z,0.00
2017-10-23T02:32:37.434Z,0.00
2017-10-23T02:33:37.421Z,0.00
2017-10-23T02:34:37.411Z,0.00
2017-10-23T02:35:37.423Z,0.00
2017-10-23T02:36:37.381Z,0.00
2017-10-23T02:37:37.365Z,0.00
2017-10-23T02:38:37.351Z,0.00
2017-10-23T02:39:37.336Z,0.00
2017-10-23T02:40:37.323Z,0.00
2017-10-23T02:41:37.308Z,0.00
2017-10-23T02:42:37.293Z,0.00
2017-10-23T02:43:37.280Z,0.00
2017-10-23T02:44:37.265Z,0.00
2017-10-23T02:45:37.252Z,0.00
2017-10-23T02:46:37.237Z,0.00
2017-10-23T02:47:37.223Z,0.00
2017-10-23T02:48:37.209Z,0.00
2017-10-23T02:49:37.196Z,0.00
2017-10-23T02:50:37.185Z,0.00
2017-10-23T02:51:37.167Z,0.00
2017-10-23T02:52:37.153Z,0.00
2017-10-23T02:53:37.139Z,0.00
2017-10-23T02:54:37.124Z,0.00
2017-10-23T02:55:37.110Z,0.00
2017-10-23T02:56:37.096Z,0.00
2017-10-23T02:57:37.082Z,0.00
2017-10-23T02:58:37.068Z,0.00
2017-10-23T02:59:37.054Z,0.00
2017-10-23T03:00:37.040Z,0.00
2017-10-23T03:01:37.026Z,0.00
2017-10-23T03:02:37.011Z,0.00
2017-10-23T03:03:37.005Z,0.00
2017-10-23T03:04:36.984Z,0.00
2017-10-23T03:05:36.971Z,0.00
2017-10-23T03:06:36.959Z,0.00
2017-10-23T03:07:36.940Z,0.00
2017-10-23T03:08:36.927Z,0.00
2017-10-23T03:09:36.913Z,0.00
2017-10-23T03:10:36.899Z,0.00
2017-10-23T03:11:36.884Z,0.00
2017-10-23T03:12:36.870Z,0.00
2017-10-23T03:13:36.856Z,0.00
2017-10-23T03:14:36.841Z,0.00
2017-10-23T03:15:36.827Z,0.00
2017-10-23T03:16:36.815Z,0.00
2017-10-23T03:17:36.801Z,0.00
2017-10-23T03:18:36.785Z,0.00
2017-10-23T03:19:36.772Z,0.00
2017-10-23T03:20:36.758Z,0.00
2017-10-23T03:21:36.745Z,0.00
2017-10-23T03:22:36.731Z,0.00
2017-10-23T03:23:36.715Z,0.00
2017-10-23T03:24:36.702Z,0.00
2017-10-23T03:25:36.688Z,0.00
2017-10-23T03:26:36.674Z,0.00
2017-10-23T03:27:36.663Z,0.00
2017-10-23T03:28:36.661Z,0.00
2017-10-23T03:29:36.632Z,0.00
2017-10-23T03:30:36.618Z,0.00
2017-10-23T03:31:36.603Z,0.00
2017-10-23T03:32:36.599Z,0.00
2017-10-23T03:33:36.576Z,0.00
2017-10-23T03:34:36.567Z,0.00
2017-10-23T03:35:36.546Z,0.00
2017-10-23T03:36:36.533Z,0.00
2017-10-23T03:37:36.519Z,0.00
2017-10-23T03:38:36.504Z,0.00
2017-10-23T03:39:36.490Z,0.00
2017-10-23T03:40:36.477Z,0.00
2017-10-23T03:41:36.463Z,0.00
2017-10-23T03:42:36.448Z,0.00
2017-10-23T03:43:36.433Z,0.00
2017-10-23T03:44:36.423Z,0.00
2017-10-23T03:45:36.407Z,0.00
2017-10-23T03:46:36.392Z,0.00
2017-10-23T03:47:36.377Z,0.00
2017-10-23T03:48:36.366Z,0.00
2017-10-23T03:49:36.351Z,0.00
2017-10-23T03:50:36.335Z,0.00
2017-10-23T03:51:36.322Z,0.00
2017-10-23T03:52:36.308Z,0.00
2017-10-23T03:53:36.294Z,0.00
2017-10-23T03:54:36.279Z,0.00
2017-10-23T03:55:36.265Z,0.00
2017-10-23T03:56:36.251Z,0.00
2017-10-23T03:57:36.237Z,0.00
2017-10-23T03:58:36.222Z,0.00
2017-10-23T03:59:36.209Z,0.00
2017-10-23T04:00:36.206Z,0.00
2017-10-23T04:01:36.181Z,0.00
2017-10-23T04:02:36.166Z,0.00
2017-10-23T04:03:36.153Z,0.00
2017-10-23T04:04:36.138Z,0.00
2017-10-23T04:05:36.124Z,0.00
2017-10-23T04:06:36.110Z,0.00
2017-10-23T04:07:36.096Z,0.00
2017-10-23T04:08:36.101Z,0.00
2017-10-23T04:09:36.067Z,0.00
2017-10-23T04:10:36.053Z,0.00
2017-10-23T04:11:36.039Z,0.00
2017-10-23T04:12:36.025Z,0.00
2017-10-23T04:13:36.011Z,0.00
2017-10-23T04:14:35.996Z,0.00
2017-10-23T04:15:35.990Z,0.00
2017-10-23T04:16:35.969Z,0.00
2017-10-23T04:17:35.954Z,0.00
2017-10-23T04:18:35.940Z,0.00
2017-10-23T04:19:35.926Z,0.00
2017-10-23T04:20:35.912Z,0.00
2017-10-23T04:21:35.898Z,0.00
2017-10-23T04:22:35.883Z,0.00
2017-10-23T04:23:35.869Z,0.00
2017-10-23T04:24:35.856Z,0.00
2017-10-23T04:25:35.843Z,0.00
2017-10-23T04:26:35.827Z,0.00
2017-10-23T04:27:35.813Z,0.00
2017-10-23T04:28:35.799Z,0.00
2017-10-23T04:29:35.786Z,0.00
2017-10-23T04:30:35.771Z,0.00
2017-10-23T04:31:35.762Z,0.00
2017-10-23T04:32:35.743Z,0.00
2017-10-23T04:33:35.729Z,0.00
2017-10-23T04:34:35.714Z,0.00
2017-10-23T04:35:35.700Z,0.00
2017-10-23T04:36:35.687Z,0.00
2017-10-23T04:37:35.672Z,0.00
2017-10-23T04:38:35.657Z,0.00
2017-10-23T04:39:35.644Z,0.00
2017-10-23T04:40:35.630Z,0.00
2017-10-23T04:41:35.616Z,0.00
2017-10-23T04:42:35.602Z,0.00
2017-10-23T04:43:35.587Z,0.00
2017-10-23T04:44:35.573Z,0.00
2017-10-23T04:45:35.560Z,0.00
2017-10-23T04:46:35.595Z,0.00
2017-10-23T04:47:35.531Z,0.00
2017-10-23T04:48:35.517Z,0.00
2017-10-23T04:49:35.503Z,0.00
2017-10-23T04:50:35.488Z,0.00
2017-10-23T04:51:35.474Z,0.00
2017-10-23T04:52:35.460Z,0.00
2017-10-23T04:53:35.447Z,0.00
2017-10-23T04:54:35.431Z,0.00
2017-10-23T04:55:35.418Z,0.00
2017-10-23T04:56:35.404Z,0.00
2017-10-23T04:57:35.388Z,0.00
2017-10-23T04:58:35.375Z,0.00
2017-10-23T04:59:35.362Z,0.00
2017-10-23T05:00:35.349Z,0.00
2017-10-23T05:01:35.335Z,0.00
2017-10-23T05:02:35.320Z,0.00
2017-10-23T05:03:35.305Z,0.00
2017-10-23T05:04:35.293Z,0.00
2017-10-23T05:05:35.279Z,0.00
2017-10-23T05:06:35.266Z,0.00
2017-10-23T05:07:35.250Z,0.00
2017-10-23T05:08:35.240Z,0.00
2017-10-23T05:09:35.221Z,0.00
2017-10-23T05:10:35.208Z,0.00
2017-10-23T05:11:35.195Z,0.00
2017-10-23T05:12:35.179Z,0.00
2017-10-23T05:13:35.165Z,0.00
2017-10-23T05:14:35.150Z,0.00
2017-10-23T05:15:35.139Z,0.00
2017-10-23T05:16:35.124Z,0.00
2017-10-23T05:17:35.109Z,0.00
2017-10-23T05:18:35.112Z,0.00
2017-10-23T05:19:35.081Z,0.00
2017-10-23T05:20:35.067Z,0.00
2017-10-23T05:21:35.054Z,0.00
2017-10-23T05:22:35.038Z,0.00
2017-10-23T05:23:35.025Z,0.00
2017-10-23T05:24:35.012Z,0.00
2017-10-23T05:25:34.996Z,0.00
2017-10-23T05:26:34.984Z,0.00
2017-10-23T05:27:34.968Z,0.00
2017-10-23T05:28:34.959Z,0.00
2017-10-23T05:29:34.941Z,0.00
2017-10-23T05:30:34.925Z,0.00
2017-10-23T05:31:34.911Z,0.00
2017-10-23T05:32:34.902Z,0.00
2017-10-23T05:33:34.883Z,0.00
2017-10-23T05:34:34.870Z,0.00
2017-10-23T05:35:34.856Z,0.00
2017-10-23T05:36:34.842Z,0.00
2017-10-23T05:37:34.828Z,0.00
2017-10-23T05:38:34.812Z,0.00
2017-10-23T05:39:34.799Z,0.00
2017-10-23T05:40:34.785Z,0.00
2017-10-23T05:41:34.774Z,0.00
2017-10-23T05:42:34.756Z,0.00
2017-10-23T05:43:34.742Z,0.00
2017-10-23T05:44:34.730Z,0.00
2017-10-23T05:45:34.714Z,0.00
2017-10-23T05:46:34.700Z,0.00
2017-10-23T05:47:34.685Z,0.00
2017-10-23T05:48:34.671Z,0.00
2017-10-23T05:49:34.657Z,0.00
2017-10-23T05:50:34.644Z,0.00
2017-10-23T05:51:34.629Z,0.00
2017-10-23T05:52:34.615Z,0.00
2017-10-23T05:53:34.602Z,0.00
2017-10-23T05:54:34.588Z,0.00
2017-10-23T05:55:34.573Z,0.00
2017-10-23T05:56:34.560Z,0.00
2017-10-23T05:57:34.546Z,0.00
2017-10-23T05:58:34.531Z,0.00
2017-10-23T05:59:34.515Z,0.00
2017-10-23T06:00:34.502Z,0.00
2017-10-23T06:01:34.488Z,0.00
2017-10-23T06:02:34.473Z,0.00
2017-10-23T06:03:34.458Z,0.00
2017-10-23T06:04:34.445Z,0.00
2017-10-23T06:05:34.430Z,0.00
2017-10-23T06:06:34.416Z,0.00
2017-10-23T06:07:34.403Z,0.00
2017-10-23T06:08:34.389Z,0.00
2017-10-23T06:09:34.376Z,0.00
2017-10-23T06:10:34.360Z,0.00
2017-10-23T06:11:34.347Z,0.00
2017-10-23T06:12:34.333Z,0.00
2017-10-23T06:13:34.318Z,0.00
2017-10-23T06:14:34.303Z,0.00
2017-10-23T06:15:34.291Z,0.00
2017-10-23T06:16:34.276Z,0.00
2017-10-23T06:17:34.263Z,0.00
2017-10-23T06:18:34.247Z,0.00
2017-10-23T06:19:34.233Z,0.00
2017-10-23T06:20:34.220Z,0.00
2017-10-23T06:21:34.206Z,0.00
2017-10-23T06:22:34.191Z,0.00
2017-10-23T06:23:34.184Z,0.00
2017-10-23T06:24:34.164Z,0.00
2017-10-23T06:25:34.150Z,0.00
2017-10-23T06:26:34.136Z,0.00
2017-10-23T06:27:34.120Z,0.00
2017-10-23T06:28:34.105Z,0.00
2017-10-23T06:29:34.092Z,0.00
2017-10-23T06:30:34.077Z,0.00
2017-10-23T06:31:34.064Z,0.00
2017-10-23T06:32:34.049Z,0.00
2017-10-23T06:33:34.036Z,0.00
2017-10-23T06:34:34.021Z,0.00
2017-10-23T06:35:34.010Z,0.00
2017-10-23T06:36:33.998Z,0.00
2017-10-23T06:37:33.980Z,0.00
2017-10-23T06:38:33.964Z,0.00
2017-10-23T06:39:33.966Z,0.00
2017-10-23T06:40:33.938Z,0.00
2017-10-23T06:41:33.924Z,0.00
2017-10-23T06:42:33.908Z,0.00
2017-10-23T06:43:33.895Z,0.00
2017-10-23T06:44:33.881Z,0.00
2017-10-23T06:45:33.874Z,0.00
2017-10-23T06:46:33.852Z,0.00
2017-10-23T06:47:33.839Z,0.00
2017-10-23T06:48:33.825Z,0.00
2017-10-23T06:49:33.809Z,0.00
2017-10-23T06:50:33.815Z,0.00
2017-10-23T06:51:33.782Z,0.00
2017-10-23T06:52:33.767Z,0.00
2017-10-23T06:53:33.754Z,0.00
2017-10-23T06:54:33.740Z,0.00
2017-10-23T06:55:33.726Z,0.00
2017-10-23T06:56:33.711Z,0.00
2017-10-23T06:57:33.699Z,0.00
2017-10-23T06:58:33.682Z,0.00
2017-10-23T06:59:33.674Z,0.00
2017-10-23T07:00:33.656Z,0.00
2017-10-23T07:01:33.641Z,0.00
2017-10-23T07:02:33.626Z,0.00
2017-10-23T07:03:33.613Z,0.00
2017-10-23T07:04:33.599Z,0.00
2017-10-23T07:05:33.586Z,0.00
2017-10-23T07:06:33.570Z,0.00
2017-10-23T07:07:33.557Z,0.00
2017-10-23T07:08:33.543Z,0.00
2017-10-23T07:09:33.529Z,0.00
2017-10-23T07:10:33.517Z,0.00
2017-10-23T07:11:33.500Z,0.00
2017-10-23T07:12:33.486Z,0.00
2017-10-23T07:13:33.472Z,0.00
2017-10-23T07:14:33.460Z,0.00
2017-10-23T07:15:33.443Z,0.00
2017-10-23T07:16:33.430Z,0.00
2017-10-23T07:17:33.416Z,0.00
2017-10-23T07:18:33.401Z,0.00
2017-10-23T07:19:33.388Z,0.00
2017-10-23T07:20:33.374Z,0.00
2017-10-23T07:21:33.360Z,0.00
2017-10-23T07:22:33.345Z,0.00
2017-10-23T07:23:33.332Z,0.00
2017-10-23T07:24:33.317Z,0.00
2017-10-23T07:25:33.305Z,0.00
2017-10-23T07:26:33.289Z,0.00
2017-10-23T07:27:33.275Z,0.00
2017-10-23T07:28:33.264Z,0.00
2017-10-23T07:29:33.249Z,0.00
2017-10-23T07:30:33.234Z,0.00
2017-10-23T07:31:33.219Z,0.00
2017-10-23T07:32:33.205Z,0.00
2017-10-23T07:33:33.191Z,0.00
2017-10-23T07:34:33.177Z,0.00
2017-10-23T07:35:33.162Z,0.00
2017-10-23T07:36:33.148Z,0.00
2017-10-23T07:37:33.135Z,0.00
2017-10-23T07:38:33.120Z,0.00
2017-10-23T07:39:33.106Z,0.00
2017-10-23T07:40:33.092Z,0.00
2017-10-23T07:41:33.077Z,0.00
2017-10-23T07:42:33.063Z,0.00
2017-10-23T07:43:33.058Z,0.00
2017-10-23T07:44:33.036Z,0.00
2017-10-23T07:45:33.021Z,0.00
2017-10-23T07:46:33.006Z,0.00
2017-10-23T07:47:32.993Z,0.00
2017-10-23T07:48:32.983Z,0.00
2017-10-23T07:49:32.964Z,0.00
2017-10-23T07:50:32.950Z,0.00
2017-10-23T07:51:32.936Z,0.00
2017-10-23T07:52:32.922Z,0.00
2017-10-23T07:53:32.909Z,0.00
2017-10-23T07:54:32.892Z,0.00
2017-10-23T07:55:32.879Z,0.00
2017-10-23T07:56:32.866Z,0.00
2017-10-23T07:57:32.853Z,0.00
2017-10-23T07:58:32.837Z,0.00
2017-10-23T07:59:32.824Z,0.00
2017-10-23T08:00:32.809Z,0.00
2017-10-23T08:01:32.796Z,0.00
2017-10-23T08:02:32.781Z,0.00
2017-10-23T08:03:32.769Z,5.63
2017-10-23T08:04:32.754Z,0.00
2017-10-23T08:05:32.740Z,0.00
2017-10-23T08:06:32.725Z,0.00
2017-10-23T08:07:32.711Z,0.00
2017-10-23T08:08:32.700Z,0.00
2017-10-23T08:09:32.683Z,0.00
2017-10-23T08:10:32.669Z,0.00
2017-10-23T08:11:32.656Z,0.00
2017-10-23T08:12:32.641Z,0.00
2017-10-23T08:13:32.628Z,0.00
2017-10-23T08:14:32.612Z,0.00
2017-10-23T08:15:32.599Z,5.63
2017-10-23T08:16:32.586Z,5.63
2017-10-23T08:17:32.571Z,0.00
2017-10-23T08:18:32.557Z,0.00
2017-10-23T08:19:32.543Z,0.00
2017-10-23T08:20:32.528Z,0.00
2017-10-23T08:21:32.515Z,0.00
2017-10-23T08:22:32.501Z,0.00
2017-10-23T08:23:32.487Z,0.00
2017-10-23T08:24:32.474Z,0.00
2017-10-23T08:25:32.460Z,0.00
2017-10-23T08:26:32.445Z,0.00
2017-10-23T08:27:32.431Z,0.00
2017-10-23T08:28:32.418Z,0.00
2017-10-23T08:29:32.404Z,0.00
2017-10-23T08:30:32.390Z,0.00
2017-10-23T08:31:32.376Z,0.00
2017-10-23T08:32:32.362Z,0.00
2017-10-23T08:33:32.349Z,0.00
2017-10-23T08:34:32.333Z,0.00
2017-10-23T08:35:32.321Z,0.00
2017-10-23T08:36:32.306Z,0.00
2017-10-23T08:37:32.292Z,0.00
2017-10-23T08:38:32.278Z,0.00
2017-10-23T08:39:32.264Z,0.00
2017-10-23T08:40:32.250Z,0.00
2017-10-23T08:41:32.237Z,0.00
2017-10-23T08:42:32.221Z,0.00
2017-10-23T08:43:32.208Z,0.00
2017-10-23T08:44:32.195Z,0.00
2017-10-23T08:45:32.180Z,5.63
2017-10-23T08:46:32.166Z,5.63
2017-10-23T08:47:32.152Z,5.63
2017-10-23T08:48:32.139Z,5.63
2017-10-23T08:49:32.125Z,5.63
2017-10-23T08:50:32.111Z,5.63
2017-10-23T08:51:32.097Z,5.63
2017-10-23T08:52:32.083Z,5.63
2017-10-23T08:53:32.069Z,5.63
2017-10-23T08:54:32.059Z,5.63
2017-10-23T08:55:32.041Z,5.63
2017-10-23T08:56:32.028Z,5.63
2017-10-23T08:57:32.014Z,5.63
2017-10-23T08:58:32.000Z,5.63
2017-10-23T08:59:31.990Z,5.63
2017-10-23T09:00:31.972Z,5.63
2017-10-23T09:01:31.957Z,5.63
2017-10-23T09:02:31.944Z,5.63
2017-10-23T09:03:31.934Z,5.63
2017-10-23T09:04:31.920Z,5.63
2017-10-23T09:05:31.903Z,5.63
2017-10-23T09:06:31.889Z,5.63
2017-10-23T09:07:31.875Z,5.63
2017-10-23T09:08:31.861Z,11.25
2017-10-23T09:09:31.850Z,16.88
2017-10-23T09:10:31.833Z,16.88
2017-10-23T09:11:31.820Z,16.88
2017-10-23T09:12:31.806Z,11.25
2017-10-23T09:13:31.794Z,16.88
2017-10-23T09:14:31.778Z,16.88
2017-10-23T09:15:31.765Z,16.88
2017-10-23T09:16:31.754Z,5.63
2017-10-23T09:17:31.744Z,11.25
2017-10-23T09:18:31.724Z,16.88
2017-10-23T09:19:31.710Z,16.88
2017-10-23T09:20:31.698Z,16.88
2017-10-23T09:21:31.685Z,16.88
2017-10-23T09:22:31.674Z,16.88
2017-10-23T09:23:31.658Z,16.88
2017-10-23T09:24:31.648Z,16.88
2017-10-23T09:25:31.630Z,16.88
2017-10-23T09:26:31.620Z,16.88
2017-10-23T09:27:31.605Z,16.88
2017-10-23T09:28:31.594Z,16.88
2017-10-23T09:29:31.578Z,22.50
2017-10-23T09:30:31.565Z,22.50
2017-10-23T09:31:31.552Z,28.13
2017-10-23T09:32:31.540Z,22.50
2017-10-23T09:33:31.526Z,16.88
2017-10-23T09:34:31.513Z,22.50
2017-10-23T09:35:31.500Z,22.50
2017-10-23T09:36:31.487Z,28.13
2017-10-23T09:37:31.481Z,22.50
2017-10-23T09:38:31.462Z,22.50
2017-10-23T09:39:31.452Z,22.50
2017-10-23T09:40:31.437Z,22.50
2017-10-23T09:41:31.426Z,22.50
2017-10-23T09:42:31.413Z,28.13
2017-10-23T09:43:31.400Z,28.13
2017-10-23T09:44:31.387Z,28.13
2017-10-23T09:45:31.376Z,33.75
2017-10-23T09:46:31.362Z,28.13
2017-10-23T09:47:31.355Z,16.88
2017-10-23T09:48:31.338Z,11.25
2017-10-23T09:49:31.326Z,16.88
2017-10-23T09:50:31.313Z,33.75
2017-10-23T09:51:31.301Z,28.13
2017-10-23T09:52:31.290Z,11.25
2017-10-23T09:53:31.276Z,33.75
2017-10-23T09:54:31.264Z,28.13
2017-10-23T09:55:31.251Z,39.38
2017-10-23T09:56:31.239Z,39.38
2017-10-23T09:57:31.229Z,33.75
2017-10-23T09:58:31.216Z,16.88
2017-10-23T09:59:31.205Z,28.13
2017-10-23T10:00:31.192Z,28.13
2017-10-23T10:01:31.180Z,39.38
2017-10-23T10:02:31.168Z,45.00
2017-10-23T10:03:31.157Z,11.25
2017-10-23T10:04:31.145Z,45.00
2017-10-23T10:05:31.133Z,45.00
2017-10-23T10:06:31.120Z,16.88
2017-10-23T10:07:31.109Z,5.63
2017-10-23T10:08:31.098Z,5.63
2017-10-23T10:09:31.086Z,11.25
2017-10-23T10:10:31.073Z,33.75
2017-10-23T10:11:31.061Z,33.75
2017-10-23T10:12:31.050Z,45.00
2017-10-23T10:13:31.054Z,50.63
2017-10-23T10:14:31.126Z,16.88
2017-10-23T10:15:31.014Z,5.63
2017-10-23T10:16:31.003Z,50.63
2017-10-23T10:17:30.991Z,11.25
2017-10-23T10:18:30.979Z,5.63
2017-10-23T10:19:30.967Z,5.63
2017-10-23T10:20:30.956Z,0.00
2017-10-23T10:21:30.944Z,0.00
2017-10-23T10:22:30.932Z,5.63
2017-10-23T10:23:30.919Z,5.63
2017-10-23T10:24:30.908Z,11.25
2017-10-23T10:25:30.897Z,5.63
2017-10-23T10:26:30.883Z,5.63
2017-10-23T10:27:30.874Z,5.63
2017-10-23T10:28:30.861Z,5.63
2017-10-23T10:29:30.848Z,11.25
2017-10-23T10:30:30.835Z,45.00
2017-10-23T10:31:30.823Z,11.25
2017-10-23T10:32:30.811Z,5.63
2017-10-23T10:33:30.800Z,11.25
2017-10-23T10:34:30.785Z,16.88
2017-10-23T10:35:30.775Z,67.50
2017-10-23T10:36:30.763Z,5.63
2017-10-23T10:37:30.751Z,5.63
2017-10-23T10:38:30.742Z,5.63
2017-10-23T10:39:30.725Z,5.63
2017-10-23T10:40:30.714Z,11.25
2017-10-23T10:41:30.709Z,67.50
2017-10-23T10:42:30.714Z,67.50
2017-10-23T10:43:30.677Z,5.63
2017-10-23T10:44:30.666Z,5.63
2017-10-23T10:45:30.653Z,11.25
2017-10-23T10:46:30.640Z,5.63
2017-10-23T10:47:30.628Z,5.63
2017-10-23T10:48:30.616Z,5.63
2017-10-23T10:49:30.604Z,11.25
2017-10-23T10:50:30.590Z,11.25
2017-10-23T10:51:30.579Z,67.50
2017-10-23T10:52:30.567Z,16.88
2017-10-23T10:53:30.555Z,84.38
2017-10-23T10:54:30.541Z,39.38
2017-10-23T10:55:30.530Z,22.50
2017-10-23T10:56:30.517Z,84.38
2017-10-23T10:57:30.505Z,50.63
2017-10-23T10:58:30.492Z,11.25
2017-10-23T10:59:30.481Z,11.25
2017-10-23T11:00:30.468Z,5.63
2017-10-23T11:01:30.457Z,5.63
2017-10-23T11:02:30.454Z,5.63
2017-10-23T11:03:30.432Z,11.25
2017-10-23T11:04:30.419Z,45.00
2017-10-23T11:05:30.408Z,73.13
2017-10-23T11:06:30.395Z,16.88
2017-10-23T11:07:30.383Z,84.38
2017-10-23T11:08:30.373Z,50.63
2017-10-23T11:09:30.359Z,11.25
2017-10-23T11:10:30.496Z,11.25
2017-10-23T11:11:30.352Z,5.63
2017-10-23T11:12:30.323Z,5.63
2017-10-23T11:13:30.311Z,11.25
2017-10-23T11:14:30.298Z,11.25
2017-10-23T11:15:30.286Z,67.50
2017-10-23T11:16:30.274Z,33.75
2017-10-23T11:17:30.264Z,5.63
2017-10-23T11:18:30.251Z,5.63
2017-10-23T11:19:30.238Z,5.63
2017-10-23T11:20:30.227Z,0.00
2017-10-23T11:21:30.215Z,0.00
2017-10-23T11:22:30.201Z,0.00
2017-10-23T11:23:30.190Z,0.00
2017-10-23T11:24:30.180Z,0.00
2017-10-23T11:25:30.169Z,5.63
2017-10-23T11:26:30.171Z,11.25
2017-10-23T11:27:30.141Z,11.25
2017-10-23T11:28:30.129Z,11.25
2017-10-23T11:29:30.117Z,39.38
2017-10-23T11:30:30.110Z,11.25
2017-10-23T11:31:30.092Z,5.63
2017-10-23T11:32:30.080Z,5.63
2017-10-23T11:33:30.067Z,11.25
2017-10-23T11:34:30.055Z,11.25
2017-10-23T11:35:30.044Z,33.75
2017-10-23T11:36:30.035Z,16.88
2017-10-23T11:37:30.018Z,39.38
2017-10-23T11:38:30.006Z,39.38
2017-10-23T11:39:29.994Z,5.63
2017-10-23T11:40:29.979Z,5.63
2017-10-23T11:41:29.970Z,16.88
2017-10-23T11:42:29.958Z,45.00
2017-10-23T11:43:29.943Z,67.50
2017-10-23T11:44:29.931Z,16.88
2017-10-23T11:45:29.919Z,16.88
2017-10-23T11:46:29.910Z,84.38
2017-10-23T11:47:29.894Z,67.50
2017-10-23T11:48:29.881Z,16.88
2017-10-23T11:49:29.872Z,22.50
2017-10-23T11:50:29.857Z,84.38
2017-10-23T11:51:29.845Z,78.75
2017-10-23T11:52:29.833Z,22.50
2017-10-23T11:53:29.821Z,56.25
2017-10-23T11:54:29.808Z,28.13
2017-10-23T11:55:29.795Z,33.75
2017-10-23T11:56:29.788Z,67.50
2017-10-23T11:57:29.773Z,39.38
2017-10-23T11:58:29.760Z,78.75
2017-10-23T11:59:29.749Z,73.13
2017-10-23T12:00:29.736Z,73.13
2017-10-23T12:01:29.726Z,73.13
2017-10-23T12:02:29.712Z,73.13
2017-10-23T12:03:29.707Z,50.63
2017-10-23T12:04:29.692Z,16.88
2017-10-23T12:05:29.679Z,11.25
2017-10-23T12:06:29.666Z,11.25
2017-10-23T12:07:29.654Z,5.63
2017-10-23T12:08:29.643Z,5.63
2017-10-23T12:09:29.632Z,0.00
2017-10-23T12:10:29.621Z,0.00
2017-10-23T12:11:29.619Z,0.00
2017-10-23T12:12:29.595Z,0.00
2017-10-23T12:13:29.585Z,5.63
2017-10-23T12:14:29.572Z,5.63
2017-10-23T12:15:29.560Z,5.63
2017-10-23T12:16:29.550Z,16.88
2017-10-23T12:17:29.539Z,16.88
2017-10-23T12:18:29.525Z,16.88
2017-10-23T12:19:29.513Z,11.25
2017-10-23T12:20:29.502Z,5.63
2017-10-23T12:21:29.491Z,5.63
2017-10-23T12:22:29.476Z,5.63
2017-10-23T12:23:29.466Z,5.63
2017-10-23T12:24:29.453Z,5.63
2017-10-23T12:25:29.441Z,5.63
2017-10-23T12:26:29.430Z,0.00
2017-10-23T12:27:29.417Z,0.00
2017-10-23T12:28:29.405Z,5.63
2017-10-23T12:29:29.394Z,5.63
2017-10-23T12:30:29.381Z,5.63
2017-10-23T12:31:29.369Z,5.63
2017-10-23T12:33:29.344Z,5.63
2017-10-23T12:34:29.332Z,5.63
2017-10-23T12:35:29.319Z,0.00
2017-10-23T12:36:29.307Z,0.00
2017-10-23T12:37:29.294Z,0.00
2017-10-23T12:38:29.281Z,0.00
2017-10-23T12:39:29.268Z,0.00
2017-10-23T12:40:29.257Z,0.00
2017-10-23T12:41:29.246Z,0.00
2017-10-23T12:42:29.231Z,5.63
2017-10-23T12:43:29.219Z,5.63
2017-10-23T12:44:29.207Z,5.63
2017-10-23T12:45:29.195Z,5.63
2017-10-23T12:46:29.180Z,5.63
2017-10-23T12:47:29.169Z,5.63
2017-10-23T12:48:29.159Z,5.63
2017-10-23T12:49:29.144Z,5.63
2017-10-23T12:50:29.130Z,11.25
2017-10-23T12:51:29.116Z,61.88
2017-10-23T12:52:29.104Z,22.50
2017-10-23T12:53:29.091Z,5.63
2017-10-23T12:54:29.082Z,5.63
2017-10-23T12:55:29.070Z,5.63
2017-10-23T12:56:29.055Z,5.63
2017-10-23T12:57:29.042Z,5.63
2017-10-23T12:58:29.029Z,50.63
2017-10-23T12:59:29.016Z,16.88
2017-10-23T13:00:29.004Z,28.13
2017-10-23T13:01:28.991Z,39.38
2017-10-23T13:02:28.978Z,61.88
2017-10-23T13:03:28.968Z,11.25
2017-10-23T13:04:28.978Z,11.25
2017-10-23T13:05:28.941Z,5.63
2017-10-23T13:06:28.928Z,5.63
2017-10-23T13:07:28.916Z,0.00
2017-10-23T13:08:28.902Z,0.00
2017-10-23T13:09:28.891Z,0.00
2017-10-23T13:10:28.881Z,0.00
2017-10-23T13:11:28.865Z,5.63
2017-10-23T13:12:28.852Z,0.00
2017-10-23T13:13:28.841Z,5.63
2017-10-23T13:14:28.827Z,5.63